sensor_id;sensor_type;location;lat;lon;timestamp;P1;durP1;ratioP1;P2;durP2;ratioP2
13309;SDS011;6723;48.256;16.402;2023-07-20T00:01:59;5.77;;;4.20;;
13309;SDS011;6723;48.256;16.402;2023-07-20T00:04:25;5.43;;;4.07;;
13309;SDS011;6723;48.256;16.402;2023-07-20T00:06:51;6.40;;;4.40;;
13309;SDS011;6723;48.256;16.402;2023-07-20T00:09:17;6.30;;;4.43;;
13309;SDS011;6723;48.256;16.402;2023-07-20T00:11:48;5.33;;;4.17;;
13309;SDS011;6723;48.256;16.402;2023-07-20T00:14:18;5.03;;;4.00;;
13309;SDS011;6723;48.256;16.402;2023-07-20T00:16:45;5.73;;;3.90;;
13309;SDS011;6723;48.256;16.402;2023-07-20T00:19:24;5.27;;;4.37;;
13309;SDS011;6723;48.256;16.402;2023-07-20T00:21:51;5.70;;;4.40;;
13309;SDS011;6723;48.256;16.402;2023-07-20T00:24:17;6.13;;;4.30;;
13309;SDS011;6723;48.256;16.402;2023-07-20T00:26:43;5.30;;;4.03;;
13309;SDS011;6723;48.256;16.402;2023-07-20T00:29:10;4.60;;;4.00;;
13309;SDS011;6723;48.256;16.402;2023-07-20T00:31:36;5.37;;;4.63;;
13309;SDS011;6723;48.256;16.402;2023-07-20T00:34:02;5.33;;;4.53;;
13309;SDS011;6723;48.256;16.402;2023-07-20T00:36:29;9.07;;;4.13;;
13309;SDS011;6723;48.256;16.402;2023-07-20T00:38:55;5.63;;;4.33;;
13309;SDS011;6723;48.256;16.402;2023-07-20T00:41:21;6.67;;;4.30;;
13309;SDS011;6723;48.256;16.402;2023-07-20T00:43:46;5.73;;;4.17;;
13309;SDS011;6723;48.256;16.402;2023-07-20T00:46:12;5.53;;;4.43;;
13309;SDS011;6723;48.256;16.402;2023-07-20T00:48:39;5.07;;;4.07;;
13309;SDS011;6723;48.256;16.402;2023-07-20T00:51:06;5.47;;;4.37;;
13309;SDS011;6723;48.256;16.402;2023-07-20T00:53:32;6.03;;;4.40;;
13309;SDS011;6723;48.256;16.402;2023-07-20T00:55:58;7.83;;;4.50;;
13309;SDS011;6723;48.256;16.402;2023-07-20T00:58:24;6.57;;;4.30;;
13309;SDS011;6723;48.256;16.402;2023-07-20T01:00:50;4.67;;;4.17;;
13309;SDS011;6723;48.256;16.402;2023-07-20T01:03:16;5.73;;;4.07;;
13309;SDS011;6723;48.256;16.402;2023-07-20T01:14:25;5.23;;;4.10;;
13309;SDS011;6723;48.256;16.402;2023-07-20T01:16:51;6.13;;;4.27;;
13309;SDS011;6723;48.256;16.402;2023-07-20T01:19:17;6.80;;;4.40;;
13309;SDS011;6723;48.256;16.402;2023-07-20T01:21:50;6.03;;;4.20;;
13309;SDS011;6723;48.256;16.402;2023-07-20T01:33:42;6.70;;;4.17;;
13309;SDS011;6723;48.256;16.402;2023-07-20T01:36:09;4.90;;;4.20;;
13309;SDS011;6723;48.256;16.402;2023-07-20T01:38:36;7.10;;;4.23;;
13309;SDS011;6723;48.256;16.402;2023-07-20T01:41:02;7.70;;;4.40;;
13309;SDS011;6723;48.256;16.402;2023-07-20T01:43:29;6.30;;;4.33;;
13309;SDS011;6723;48.256;16.402;2023-07-20T01:45:54;6.27;;;4.20;;
13309;SDS011;6723;48.256;16.402;2023-07-20T01:48:20;6.87;;;4.20;;
13309;SDS011;6723;48.256;16.402;2023-07-20T01:50:46;6.40;;;4.07;;
13309;SDS011;6723;48.256;16.402;2023-07-20T01:53:12;6.40;;;4.30;;
13309;SDS011;6723;48.256;16.402;2023-07-20T01:55:38;4.73;;;3.80;;
13309;SDS011;6723;48.256;16.402;2023-07-20T01:58:03;5.60;;;4.37;;
13309;SDS011;6723;48.256;16.402;2023-07-20T02:00:31;7.43;;;4.07;;
13309;SDS011;6723;48.256;16.402;2023-07-20T02:02:56;6.80;;;4.47;;
13309;SDS011;6723;48.256;16.402;2023-07-20T02:05:22;6.87;;;4.50;;
13309;SDS011;6723;48.256;16.402;2023-07-20T02:07:48;6.37;;;4.33;;
13309;SDS011;6723;48.256;16.402;2023-07-20T02:10:14;5.80;;;4.33;;
13309;SDS011;6723;48.256;16.402;2023-07-20T02:12:39;6.57;;;4.30;;
13309;SDS011;6723;48.256;16.402;2023-07-20T02:15:05;6.47;;;4.13;;
13309;SDS011;6723;48.256;16.402;2023-07-20T02:17:31;5.63;;;4.00;;
13309;SDS011;6723;48.256;16.402;2023-07-20T02:19:57;10.57;;;4.20;;
13309;SDS011;6723;48.256;16.402;2023-07-20T02:22:23;5.47;;;4.10;;
13309;SDS011;6723;48.256;16.402;2023-07-20T02:24:49;6.50;;;4.27;;
13309;SDS011;6723;48.256;16.402;2023-07-20T02:27:15;6.87;;;4.50;;
13309;SDS011;6723;48.256;16.402;2023-07-20T02:29:41;6.10;;;4.10;;
13309;SDS011;6723;48.256;16.402;2023-07-20T02:32:08;6.13;;;4.30;;
13309;SDS011;6723;48.256;16.402;2023-07-20T02:34:35;6.30;;;4.17;;
13309;SDS011;6723;48.256;16.402;2023-07-20T02:37:01;7.53;;;4.17;;
13309;SDS011;6723;48.256;16.402;2023-07-20T02:39:27;6.87;;;4.20;;
13309;SDS011;6723;48.256;16.402;2023-07-20T02:41:53;5.40;;;4.20;;
13309;SDS011;6723;48.256;16.402;2023-07-20T02:44:19;9.20;;;4.07;;
13309;SDS011;6723;48.256;16.402;2023-07-20T02:46:45;6.73;;;4.10;;
13309;SDS011;6723;48.256;16.402;2023-07-20T02:49:11;4.80;;;4.03;;
13309;SDS011;6723;48.256;16.402;2023-07-20T02:51:37;5.77;;;4.30;;
13309;SDS011;6723;48.256;16.402;2023-07-20T02:54:03;5.70;;;4.20;;
13309;SDS011;6723;48.256;16.402;2023-07-20T02:56:29;5.97;;;4.10;;
13309;SDS011;6723;48.256;16.402;2023-07-20T02:58:55;5.40;;;4.20;;
13309;SDS011;6723;48.256;16.402;2023-07-20T03:01:20;5.70;;;4.30;;
13309;SDS011;6723;48.256;16.402;2023-07-20T03:03:46;5.97;;;4.43;;
13309;SDS011;6723;48.256;16.402;2023-07-20T03:06:13;5.10;;;3.97;;
13309;SDS011;6723;48.256;16.402;2023-07-20T03:08:40;6.20;;;4.30;;
13309;SDS011;6723;48.256;16.402;2023-07-20T03:11:10;8.97;;;4.57;;
13309;SDS011;6723;48.256;16.402;2023-07-20T03:13:36;5.73;;;4.47;;
13309;SDS011;6723;48.256;16.402;2023-07-20T03:16:02;5.20;;;4.10;;
13309;SDS011;6723;48.256;16.402;2023-07-20T03:18:27;5.23;;;4.27;;
13309;SDS011;6723;48.256;16.402;2023-07-20T03:20:53;5.83;;;4.20;;
13309;SDS011;6723;48.256;16.402;2023-07-20T03:23:19;6.77;;;4.60;;
13309;SDS011;6723;48.256;16.402;2023-07-20T03:25:44;6.13;;;4.17;;
13309;SDS011;6723;48.256;16.402;2023-07-20T03:28:10;6.30;;;4.60;;
13309;SDS011;6723;48.256;16.402;2023-07-20T03:30:36;4.87;;;3.73;;
13309;SDS011;6723;48.256;16.402;2023-07-20T03:33:02;6.63;;;4.67;;
13309;SDS011;6723;48.256;16.402;2023-07-20T03:35:28;5.63;;;4.33;;
13309;SDS011;6723;48.256;16.402;2023-07-20T03:37:54;5.83;;;4.07;;
13309;SDS011;6723;48.256;16.402;2023-07-20T03:40:20;6.53;;;4.03;;
13309;SDS011;6723;48.256;16.402;2023-07-20T03:42:45;6.03;;;4.10;;
13309;SDS011;6723;48.256;16.402;2023-07-20T03:45:11;6.17;;;3.47;;
13309;SDS011;6723;48.256;16.402;2023-07-20T03:47:37;6.40;;;3.80;;
13309;SDS011;6723;48.256;16.402;2023-07-20T03:50:03;4.17;;;3.77;;
13309;SDS011;6723;48.256;16.402;2023-07-20T03:52:30;5.27;;;3.87;;
13309;SDS011;6723;48.256;16.402;2023-07-20T03:54:56;4.83;;;4.00;;
13309;SDS011;6723;48.256;16.402;2023-07-20T03:57:22;5.93;;;4.30;;
13309;SDS011;6723;48.256;16.402;2023-07-20T03:59:47;4.80;;;3.43;;
13309;SDS011;6723;48.256;16.402;2023-07-20T04:02:13;6.77;;;4.00;;
13309;SDS011;6723;48.256;16.402;2023-07-20T04:04:39;6.67;;;4.00;;
13309;SDS011;6723;48.256;16.402;2023-07-20T04:07:05;9.23;;;3.87;;
13309;SDS011;6723;48.256;16.402;2023-07-20T04:09:32;5.40;;;4.17;;
13309;SDS011;6723;48.256;16.402;2023-07-20T04:11:58;6.63;;;4.20;;
13309;SDS011;6723;48.256;16.402;2023-07-20T04:14:24;7.47;;;4.13;;
13309;SDS011;6723;48.256;16.402;2023-07-20T04:19:38;5.43;;;4.17;;
13309;SDS011;6723;48.256;16.402;2023-07-20T04:22:04;6.00;;;3.90;;
13309;SDS011;6723;48.256;16.402;2023-07-20T04:24:30;6.70;;;4.20;;
13309;SDS011;6723;48.256;16.402;2023-07-20T04:26:55;7.03;;;3.73;;
13309;SDS011;6723;48.256;16.402;2023-07-20T04:29:21;4.87;;;4.17;;
13309;SDS011;6723;48.256;16.402;2023-07-20T04:31:47;6.63;;;4.00;;
13309;SDS011;6723;48.256;16.402;2023-07-20T04:34:12;5.13;;;3.77;;
13309;SDS011;6723;48.256;16.402;2023-07-20T04:36:38;6.73;;;4.43;;
13309;SDS011;6723;48.256;16.402;2023-07-20T04:39:04;5.77;;;4.00;;
13309;SDS011;6723;48.256;16.402;2023-07-20T04:41:30;5.00;;;3.47;;
13309;SDS011;6723;48.256;16.402;2023-07-20T04:43:56;7.60;;;4.30;;
13309;SDS011;6723;48.256;16.402;2023-07-20T04:46:22;4.77;;;3.80;;
13309;SDS011;6723;48.256;16.402;2023-07-20T04:48:47;5.80;;;3.63;;
13309;SDS011;6723;48.256;16.402;2023-07-20T04:51:13;5.63;;;4.03;;
13309;SDS011;6723;48.256;16.402;2023-07-20T04:53:39;7.33;;;4.10;;
13309;SDS011;6723;48.256;16.402;2023-07-20T04:56:05;6.27;;;3.90;;
13309;SDS011;6723;48.256;16.402;2023-07-20T04:58:30;8.07;;;3.80;;
13309;SDS011;6723;48.256;16.402;2023-07-20T05:00:56;6.57;;;3.90;;
13309;SDS011;6723;48.256;16.402;2023-07-20T05:03:22;5.63;;;4.07;;
13309;SDS011;6723;48.256;16.402;2023-07-20T05:05:47;5.77;;;4.20;;
13309;SDS011;6723;48.256;16.402;2023-07-20T05:08:13;5.40;;;4.23;;
13309;SDS011;6723;48.256;16.402;2023-07-20T05:10:39;7.50;;;4.50;;
13309;SDS011;6723;48.256;16.402;2023-07-20T05:13:05;5.40;;;4.23;;
13309;SDS011;6723;48.256;16.402;2023-07-20T05:15:32;7.30;;;4.47;;
13309;SDS011;6723;48.256;16.402;2023-07-20T05:18:00;9.20;;;4.30;;
13309;SDS011;6723;48.256;16.402;2023-07-20T05:20:26;4.53;;;4.07;;
13309;SDS011;6723;48.256;16.402;2023-07-20T05:22:52;6.60;;;4.07;;
13309;SDS011;6723;48.256;16.402;2023-07-20T05:25:18;9.40;;;4.53;;
13309;SDS011;6723;48.256;16.402;2023-07-20T05:27:44;5.33;;;4.33;;
13309;SDS011;6723;48.256;16.402;2023-07-20T05:30:11;9.57;;;4.80;;
13309;SDS011;6723;48.256;16.402;2023-07-20T05:32:37;5.17;;;4.30;;
13309;SDS011;6723;48.256;16.402;2023-07-20T05:35:03;6.77;;;4.43;;
13309;SDS011;6723;48.256;16.402;2023-07-20T05:37:29;6.10;;;4.23;;
13309;SDS011;6723;48.256;16.402;2023-07-20T05:39:55;7.70;;;5.00;;
13309;SDS011;6723;48.256;16.402;2023-07-20T05:42:21;9.70;;;4.37;;
13309;SDS011;6723;48.256;16.402;2023-07-20T05:44:47;6.97;;;4.70;;
13309;SDS011;6723;48.256;16.402;2023-07-20T05:47:14;4.73;;;4.20;;
13309;SDS011;6723;48.256;16.402;2023-07-20T05:49:40;7.87;;;4.40;;
13309;SDS011;6723;48.256;16.402;2023-07-20T05:52:06;6.73;;;4.87;;
13309;SDS011;6723;48.256;16.402;2023-07-20T05:54:32;9.47;;;4.43;;
13309;SDS011;6723;48.256;16.402;2023-07-20T05:56:57;9.00;;;4.80;;
13309;SDS011;6723;48.256;16.402;2023-07-20T05:59:24;4.77;;;4.30;;
13309;SDS011;6723;48.256;16.402;2023-07-20T06:01:50;7.23;;;4.53;;
13309;SDS011;6723;48.256;16.402;2023-07-20T06:04:16;6.77;;;4.50;;
13309;SDS011;6723;48.256;16.402;2023-07-20T06:06:41;8.47;;;4.40;;
13309;SDS011;6723;48.256;16.402;2023-07-20T06:09:07;11.30;;;5.53;;
13309;SDS011;6723;48.256;16.402;2023-07-20T06:11:37;8.87;;;5.20;;
13309;SDS011;6723;48.256;16.402;2023-07-20T06:14:03;10.43;;;7.07;;
13309;SDS011;6723;48.256;16.402;2023-07-20T06:16:30;12.00;;;5.90;;
13309;SDS011;6723;48.256;16.402;2023-07-20T06:18:55;8.07;;;5.43;;
13309;SDS011;6723;48.256;16.402;2023-07-20T06:21:22;6.97;;;5.30;;
13309;SDS011;6723;48.256;16.402;2023-07-20T06:23:47;7.80;;;4.80;;
13309;SDS011;6723;48.256;16.402;2023-07-20T06:26:13;9.63;;;4.70;;
13309;SDS011;6723;48.256;16.402;2023-07-20T06:28:39;14.40;;;5.40;;
13309;SDS011;6723;48.256;16.402;2023-07-20T06:31:05;6.93;;;5.23;;
13309;SDS011;6723;48.256;16.402;2023-07-20T06:33:30;7.87;;;5.80;;
13309;SDS011;6723;48.256;16.402;2023-07-20T06:35:57;7.00;;;4.53;;
13309;SDS011;6723;48.256;16.402;2023-07-20T06:38:23;5.00;;;4.17;;
13309;SDS011;6723;48.256;16.402;2023-07-20T06:40:49;5.50;;;4.53;;
13309;SDS011;6723;48.256;16.402;2023-07-20T06:43:16;5.40;;;4.13;;
13309;SDS011;6723;48.256;16.402;2023-07-20T06:45:41;5.03;;;4.17;;
13309;SDS011;6723;48.256;16.402;2023-07-20T06:48:07;5.90;;;4.47;;
13309;SDS011;6723;48.256;16.402;2023-07-20T06:50:33;7.03;;;3.97;;
13309;SDS011;6723;48.256;16.402;2023-07-20T06:52:59;6.13;;;3.73;;
13309;SDS011;6723;48.256;16.402;2023-07-20T06:55:25;6.23;;;4.33;;
13309;SDS011;6723;48.256;16.402;2023-07-20T06:57:51;6.43;;;4.23;;
13309;SDS011;6723;48.256;16.402;2023-07-20T07:00:17;6.97;;;3.83;;
13309;SDS011;6723;48.256;16.402;2023-07-20T07:02:43;10.07;;;4.43;;
13309;SDS011;6723;48.256;16.402;2023-07-20T07:05:09;8.87;;;4.00;;
13309;SDS011;6723;48.256;16.402;2023-07-20T07:07:35;14.23;;;4.13;;
13309;SDS011;6723;48.256;16.402;2023-07-20T07:10:01;9.57;;;3.67;;
13309;SDS011;6723;48.256;16.402;2023-07-20T07:12:30;6.40;;;3.60;;
13309;SDS011;6723;48.256;16.402;2023-07-20T07:14:56;6.03;;;3.60;;
13309;SDS011;6723;48.256;16.402;2023-07-20T07:17:22;5.57;;;3.60;;
13309;SDS011;6723;48.256;16.402;2023-07-20T07:19:47;7.77;;;3.97;;
13309;SDS011;6723;48.256;16.402;2023-07-20T07:22:13;7.30;;;4.20;;
13309;SDS011;6723;48.256;16.402;2023-07-20T07:24:39;6.73;;;4.13;;
13309;SDS011;6723;48.256;16.402;2023-07-20T07:27:08;8.23;;;4.57;;
13309;SDS011;6723;48.256;16.402;2023-07-20T07:29:34;4.90;;;3.47;;
13309;SDS011;6723;48.256;16.402;2023-07-20T07:32:00;5.30;;;3.38;;
13309;SDS011;6723;48.256;16.402;2023-07-20T07:34:27;4.90;;;3.22;;
13309;SDS011;6723;48.256;16.402;2023-07-20T07:36:52;3.83;;;3.25;;
13309;SDS011;6723;48.256;16.402;2023-07-20T07:39:18;5.00;;;4.35;;
13309;SDS011;6723;48.256;16.402;2023-07-20T07:41:44;5.55;;;2.85;;
13309;SDS011;6723;48.256;16.402;2023-07-20T07:44:10;3.80;;;3.33;;
13309;SDS011;6723;48.256;16.402;2023-07-20T07:46:36;5.45;;;3.67;;
13309;SDS011;6723;48.256;16.402;2023-07-20T07:49:02;4.80;;;3.00;;
13309;SDS011;6723;48.256;16.402;2023-07-20T07:51:29;3.30;;;2.20;;
13309;SDS011;6723;48.256;16.402;2023-07-20T07:53:54;4.88;;;3.10;;
13309;SDS011;6723;48.256;16.402;2023-07-20T07:56:20;4.78;;;2.65;;
13309;SDS011;6723;48.256;16.402;2023-07-20T07:58:49;8.13;;;2.50;;
13309;SDS011;6723;48.256;16.402;2023-07-20T08:01:17;5.22;;;2.53;;
13309;SDS011;6723;48.256;16.402;2023-07-20T08:03:45;3.88;;;2.30;;
13309;SDS011;6723;48.256;16.402;2023-07-20T08:06:15;3.65;;;2.00;;
13309;SDS011;6723;48.256;16.402;2023-07-20T08:08:41;4.78;;;2.65;;
13309;SDS011;6723;48.256;16.402;2023-07-20T08:11:10;3.67;;;2.28;;
13309;SDS011;6723;48.256;16.402;2023-07-20T08:13:36;2.72;;;2.10;;
13309;SDS011;6723;48.256;16.402;2023-07-20T08:16:02;4.22;;;2.10;;
13309;SDS011;6723;48.256;16.402;2023-07-20T08:18:28;4.35;;;2.13;;
13309;SDS011;6723;48.256;16.402;2023-07-20T08:20:54;5.93;;;2.30;;
13309;SDS011;6723;48.256;16.402;2023-07-20T08:23:20;5.32;;;2.40;;
13309;SDS011;6723;48.256;16.402;2023-07-20T08:25:46;4.38;;;2.05;;
13309;SDS011;6723;48.256;16.402;2023-07-20T08:28:15;8.10;;;2.20;;
13309;SDS011;6723;48.256;16.402;2023-07-20T08:30:47;4.88;;;1.98;;
13309;SDS011;6723;48.256;16.402;2023-07-20T08:33:14;4.65;;;2.25;;
13309;SDS011;6723;48.256;16.402;2023-07-20T08:35:43;4.63;;;2.10;;
13309;SDS011;6723;48.256;16.402;2023-07-20T08:38:08;3.20;;;2.05;;
13309;SDS011;6723;48.256;16.402;2023-07-20T08:40:39;4.75;;;2.38;;
13309;SDS011;6723;48.256;16.402;2023-07-20T08:43:12;5.93;;;2.70;;
13309;SDS011;6723;48.256;16.402;2023-07-20T08:45:41;5.45;;;2.60;;
13309;SDS011;6723;48.256;16.402;2023-07-20T08:48:10;5.88;;;2.58;;
13309;SDS011;6723;48.256;16.402;2023-07-20T08:50:37;5.95;;;3.15;;
13309;SDS011;6723;48.256;16.402;2023-07-20T08:53:04;5.07;;;3.15;;
13309;SDS011;6723;48.256;16.402;2023-07-20T08:55:31;4.40;;;3.20;;
13309;SDS011;6723;48.256;16.402;2023-07-20T08:57:58;17.48;;;4.88;;
13309;SDS011;6723;48.256;16.402;2023-07-20T09:00:26;15.43;;;4.85;;
13309;SDS011;6723;48.256;16.402;2023-07-20T09:02:54;11.30;;;5.10;;
13309;SDS011;6723;48.256;16.402;2023-07-20T09:05:22;11.47;;;4.53;;
13309;SDS011;6723;48.256;16.402;2023-07-20T09:07:49;10.37;;;4.70;;
13309;SDS011;6723;48.256;16.402;2023-07-20T09:10:16;13.13;;;5.00;;
13309;SDS011;6723;48.256;16.402;2023-07-20T09:12:43;9.87;;;4.50;;
13309;SDS011;6723;48.256;16.402;2023-07-20T09:15:09;6.73;;;3.80;;
13309;SDS011;6723;48.256;16.402;2023-07-20T09:17:36;3.80;;;3.40;;
13309;SDS011;6723;48.256;16.402;2023-07-20T09:20:05;5.00;;;3.90;;
13309;SDS011;6723;48.256;16.402;2023-07-20T09:22:36;5.47;;;3.30;;
13309;SDS011;6723;48.256;16.402;2023-07-20T09:25:06;5.18;;;3.53;;
13309;SDS011;6723;48.256;16.402;2023-07-20T09:27:36;6.00;;;3.60;;
13309;SDS011;6723;48.256;16.402;2023-07-20T09:30:06;3.97;;;3.43;;
13309;SDS011;6723;48.256;16.402;2023-07-20T09:32:40;5.60;;;3.63;;
13309;SDS011;6723;48.256;16.402;2023-07-20T09:35:13;8.10;;;4.17;;
13309;SDS011;6723;48.256;16.402;2023-07-20T09:37:45;6.90;;;3.70;;
13309;SDS011;6723;48.256;16.402;2023-07-20T09:40:37;5.70;;;4.23;;
13309;SDS011;6723;48.256;16.402;2023-07-20T09:43:07;8.90;;;4.27;;
13309;SDS011;6723;48.256;16.402;2023-07-20T09:45:34;11.47;;;4.07;;
13309;SDS011;6723;48.256;16.402;2023-07-20T09:48:04;5.07;;;4.10;;
13309;SDS011;6723;48.256;16.402;2023-07-20T09:50:32;6.77;;;4.47;;
13309;SDS011;6723;48.256;16.402;2023-07-20T09:52:58;5.97;;;3.50;;
13309;SDS011;6723;48.256;16.402;2023-07-20T09:55:27;4.73;;;3.57;;
13309;SDS011;6723;48.256;16.402;2023-07-20T09:57:54;6.40;;;3.50;;
13309;SDS011;6723;48.256;16.402;2023-07-20T10:00:22;7.73;;;3.70;;
13309;SDS011;6723;48.256;16.402;2023-07-20T10:02:47;4.23;;;3.20;;
13309;SDS011;6723;48.256;16.402;2023-07-20T10:05:17;7.40;;;3.30;;
13309;SDS011;6723;48.256;16.402;2023-07-20T10:07:46;7.65;;;3.13;;
13309;SDS011;6723;48.256;16.402;2023-07-20T10:10:16;7.57;;;3.08;;
13309;SDS011;6723;48.256;16.402;2023-07-20T10:12:47;4.78;;;2.70;;
13309;SDS011;6723;48.256;16.402;2023-07-20T10:15:28;4.13;;;2.90;;
13309;SDS011;6723;48.256;16.402;2023-07-20T10:18:09;4.78;;;3.00;;
13309;SDS011;6723;48.256;16.402;2023-07-20T10:20:42;3.80;;;2.85;;
13309;SDS011;6723;48.256;16.402;2023-07-20T10:23:09;6.40;;;3.08;;
13309;SDS011;6723;48.256;16.402;2023-07-20T10:25:37;3.28;;;2.90;;
13309;SDS011;6723;48.256;16.402;2023-07-20T10:28:04;4.95;;;3.80;;
13309;SDS011;6723;48.256;16.402;2023-07-20T10:30:31;9.23;;;6.40;;
13309;SDS011;6723;48.256;16.402;2023-07-20T10:33:00;5.15;;;4.00;;
13309;SDS011;6723;48.256;16.402;2023-07-20T10:35:27;4.53;;;3.40;;
13309;SDS011;6723;48.256;16.402;2023-07-20T10:38:00;6.63;;;3.28;;
13309;SDS011;6723;48.256;16.402;2023-07-20T10:40:28;5.72;;;3.80;;
13309;SDS011;6723;48.256;16.402;2023-07-20T10:43:05;3.80;;;3.20;;
13309;SDS011;6723;48.256;16.402;2023-07-20T10:45:36;3.70;;;2.73;;
13309;SDS011;6723;48.256;16.402;2023-07-20T10:48:23;5.90;;;3.13;;
13309;SDS011;6723;48.256;16.402;2023-07-20T10:51:38;4.43;;;3.07;;
13309;SDS011;6723;48.256;16.402;2023-07-20T10:53:44;5.30;;;3.00;;
13309;SDS011;6723;48.256;16.402;2023-07-20T10:56:14;4.50;;;3.13;;
13309;SDS011;6723;48.256;16.402;2023-07-20T10:58:44;4.77;;;2.90;;
13309;SDS011;6723;48.256;16.402;2023-07-20T11:01:13;3.77;;;2.67;;
13309;SDS011;6723;48.256;16.402;2023-07-20T11:03:41;6.30;;;2.63;;
13309;SDS011;6723;48.256;16.402;2023-07-20T11:09:07;5.03;;;2.63;;
13309;SDS011;6723;48.256;16.402;2023-07-20T11:11:41;3.77;;;2.40;;
13309;SDS011;6723;48.256;16.402;2023-07-20T11:14:10;3.97;;;2.50;;
13309;SDS011;6723;48.256;16.402;2023-07-20T11:16:45;4.20;;;2.40;;
13309;SDS011;6723;48.256;16.402;2023-07-20T11:19:19;4.57;;;2.63;;
13309;SDS011;6723;48.256;16.402;2023-07-20T11:21:52;3.47;;;2.57;;
13309;SDS011;6723;48.256;16.402;2023-07-20T11:24:20;7.50;;;2.63;;
13309;SDS011;6723;48.256;16.402;2023-07-20T11:26:48;5.33;;;2.50;;
13309;SDS011;6723;48.256;16.402;2023-07-20T11:29:18;2.93;;;2.33;;
13309;SDS011;6723;48.256;16.402;2023-07-20T11:31:46;6.10;;;2.10;;
13309;SDS011;6723;48.256;16.402;2023-07-20T11:34:26;6.43;;;2.63;;
13309;SDS011;6723;48.256;16.402;2023-07-20T11:36:52;4.10;;;2.37;;
13309;SDS011;6723;48.256;16.402;2023-07-20T11:39:20;2.77;;;2.10;;
13309;SDS011;6723;48.256;16.402;2023-07-20T11:41:48;3.67;;;2.47;;
13309;SDS011;6723;48.256;16.402;2023-07-20T11:44:18;3.20;;;2.20;;
13309;SDS011;6723;48.256;16.402;2023-07-20T11:47:08;4.70;;;2.30;;
13309;SDS011;6723;48.256;16.402;2023-07-20T11:49:35;4.17;;;2.23;;
13309;SDS011;6723;48.256;16.402;2023-07-20T11:52:05;3.27;;;1.97;;
13309;SDS011;6723;48.256;16.402;2023-07-20T11:54:34;6.57;;;2.20;;
13309;SDS011;6723;48.256;16.402;2023-07-20T11:57:03;4.90;;;2.40;;
13309;SDS011;6723;48.256;16.402;2023-07-20T11:59:33;4.43;;;2.20;;
13309;SDS011;6723;48.256;16.402;2023-07-20T12:02:02;3.37;;;2.20;;
13309;SDS011;6723;48.256;16.402;2023-07-20T12:04:29;2.80;;;2.47;;
13309;SDS011;6723;48.256;16.402;2023-07-20T12:06:56;4.10;;;2.33;;
13309;SDS011;6723;48.256;16.402;2023-07-20T12:09:22;4.43;;;2.30;;
13309;SDS011;6723;48.256;16.402;2023-07-20T12:11:49;5.13;;;2.37;;
13309;SDS011;6723;48.256;16.402;2023-07-20T12:14:15;5.57;;;2.30;;
13309;SDS011;6723;48.256;16.402;2023-07-20T12:16:41;3.53;;;2.40;;
13309;SDS011;6723;48.256;16.402;2023-07-20T12:21:35;7.73;;;2.10;;
13309;SDS011;6723;48.256;16.402;2023-07-20T12:24:03;4.93;;;2.20;;
13309;SDS011;6723;48.256;16.402;2023-07-20T12:26:30;4.53;;;2.10;;
13309;SDS011;6723;48.256;16.402;2023-07-20T12:28:56;4.60;;;2.47;;
13309;SDS011;6723;48.256;16.402;2023-07-20T12:31:23;3.53;;;2.27;;
13309;SDS011;6723;48.256;16.402;2023-07-20T12:33:50;2.90;;;2.20;;
13309;SDS011;6723;48.256;16.402;2023-07-20T12:36:17;3.87;;;2.03;;
13309;SDS011;6723;48.256;16.402;2023-07-20T12:38:43;2.93;;;2.00;;
13309;SDS011;6723;48.256;16.402;2023-07-20T12:41:10;4.50;;;2.00;;
13309;SDS011;6723;48.256;16.402;2023-07-20T12:43:41;4.97;;;1.87;;
13309;SDS011;6723;48.256;16.402;2023-07-20T12:46:07;3.47;;;1.80;;
13309;SDS011;6723;48.256;16.402;2023-07-20T12:48:42;3.97;;;1.80;;
13309;SDS011;6723;48.256;16.402;2023-07-20T12:51:09;2.27;;;1.73;;
13309;SDS011;6723;48.256;16.402;2023-07-20T12:53:35;2.40;;;1.90;;
13309;SDS011;6723;48.256;16.402;2023-07-20T12:56:01;4.97;;;2.07;;
13309;SDS011;6723;48.256;16.402;2023-07-20T12:58:28;3.10;;;1.77;;
13309;SDS011;6723;48.256;16.402;2023-07-20T13:00:54;3.57;;;2.03;;
13309;SDS011;6723;48.256;16.402;2023-07-20T13:03:20;4.30;;;2.30;;
13309;SDS011;6723;48.256;16.402;2023-07-20T13:05:46;2.80;;;1.80;;
13309;SDS011;6723;48.256;16.402;2023-07-20T13:08:12;5.77;;;1.97;;
13309;SDS011;6723;48.256;16.402;2023-07-20T13:10:38;4.13;;;2.00;;
13309;SDS011;6723;48.256;16.402;2023-07-20T13:13:04;2.20;;;2.00;;
13309;SDS011;6723;48.256;16.402;2023-07-20T13:15:31;8.27;;;2.10;;
13309;SDS011;6723;48.256;16.402;2023-07-20T13:17:58;6.20;;;2.00;;
13309;SDS011;6723;48.256;16.402;2023-07-20T13:20:25;2.30;;;1.80;;
13309;SDS011;6723;48.256;16.402;2023-07-20T13:22:53;2.77;;;1.70;;
13309;SDS011;6723;48.256;16.402;2023-07-20T13:25:19;3.53;;;1.80;;
13309;SDS011;6723;48.256;16.402;2023-07-20T13:27:44;3.17;;;1.90;;
13309;SDS011;6723;48.256;16.402;2023-07-20T13:30:11;3.20;;;1.90;;
13309;SDS011;6723;48.256;16.402;2023-07-20T13:32:42;4.63;;;1.80;;
13309;SDS011;6723;48.256;16.402;2023-07-20T13:35:09;5.07;;;1.80;;
13309;SDS011;6723;48.256;16.402;2023-07-20T13:37:38;4.37;;;1.80;;
13309;SDS011;6723;48.256;16.402;2023-07-20T13:40:07;2.00;;;1.80;;
13309;SDS011;6723;48.256;16.402;2023-07-20T13:42:37;1.87;;;1.73;;
13309;SDS011;6723;48.256;16.402;2023-07-20T13:45:03;2.13;;;1.90;;
13309;SDS011;6723;48.256;16.402;2023-07-20T13:47:30;3.70;;;2.17;;
13309;SDS011;6723;48.256;16.402;2023-07-20T13:49:55;7.87;;;2.33;;
13309;SDS011;6723;48.256;16.402;2023-07-20T13:52:21;6.27;;;2.07;;
13309;SDS011;6723;48.256;16.402;2023-07-20T13:54:47;9.67;;;2.90;;
13309;SDS011;6723;48.256;16.402;2023-07-20T13:57:14;5.37;;;2.47;;
13309;SDS011;6723;48.256;16.402;2023-07-20T13:59:40;5.40;;;3.20;;
13309;SDS011;6723;48.256;16.402;2023-07-20T14:02:07;5.37;;;2.77;;
13309;SDS011;6723;48.256;16.402;2023-07-20T14:04:32;6.73;;;2.60;;
13309;SDS011;6723;48.256;16.402;2023-07-20T14:06:58;3.30;;;2.43;;
13309;SDS011;6723;48.256;16.402;2023-07-20T14:09:24;3.40;;;2.10;;
13309;SDS011;6723;48.256;16.402;2023-07-20T14:11:50;3.43;;;2.17;;
13309;SDS011;6723;48.256;16.402;2023-07-20T14:14:15;6.87;;;2.40;;
13309;SDS011;6723;48.256;16.402;2023-07-20T14:16:41;5.93;;;4.20;;
13309;SDS011;6723;48.256;16.402;2023-07-20T14:19:07;7.73;;;5.80;;
13309;SDS011;6723;48.256;16.402;2023-07-20T14:21:32;6.97;;;3.80;;
13309;SDS011;6723;48.256;16.402;2023-07-20T14:23:58;5.83;;;3.80;;
13309;SDS011;6723;48.256;16.402;2023-07-20T14:26:24;2.93;;;2.60;;
13309;SDS011;6723;48.256;16.402;2023-07-20T14:28:50;3.57;;;2.10;;
13309;SDS011;6723;48.256;16.402;2023-07-20T14:31:16;3.20;;;2.40;;
13309;SDS011;6723;48.256;16.402;2023-07-20T14:33:41;10.13;;;2.77;;
13309;SDS011;6723;48.256;16.402;2023-07-20T14:36:07;2.90;;;2.60;;
13309;SDS011;6723;48.256;16.402;2023-07-20T14:38:33;2.77;;;2.40;;
13309;SDS011;6723;48.256;16.402;2023-07-20T14:41:01;6.43;;;2.47;;
13309;SDS011;6723;48.256;16.402;2023-07-20T14:43:27;2.57;;;2.30;;
13309;SDS011;6723;48.256;16.402;2023-07-20T14:45:53;2.87;;;2.67;;
13309;SDS011;6723;48.256;16.402;2023-07-20T14:48:20;4.07;;;2.83;;
13309;SDS011;6723;48.256;16.402;2023-07-20T14:50:45;5.40;;;3.23;;
13309;SDS011;6723;48.256;16.402;2023-07-20T14:53:15;7.73;;;6.20;;
13309;SDS011;6723;48.256;16.402;2023-07-20T14:55:41;3.93;;;2.30;;
13309;SDS011;6723;48.256;16.402;2023-07-20T14:58:08;5.47;;;4.00;;
13309;SDS011;6723;48.256;16.402;2023-07-20T15:00:34;6.37;;;5.30;;
13309;SDS011;6723;48.256;16.402;2023-07-20T15:03:00;3.50;;;3.10;;
13309;SDS011;6723;48.256;16.402;2023-07-20T15:05:25;4.03;;;3.20;;
13309;SDS011;6723;48.256;16.402;2023-07-20T15:07:52;5.10;;;3.83;;
13309;SDS011;6723;48.256;16.402;2023-07-20T15:10:18;5.80;;;2.83;;
13309;SDS011;6723;48.256;16.402;2023-07-20T15:12:44;6.00;;;3.70;;
13309;SDS011;6723;48.256;16.402;2023-07-20T15:15:11;3.53;;;2.40;;